Time;durP1;ratioP1;P1;durP2;ratioP2;P2;SDS_P1;SDS_P2;PMS_P1;PMS_P2;Temp;Humidity;BMP_temperature;BMP_pressure;BME280_temperature;BME280_humidity;BME280_pressure;Samples;Min_cycle;Max_cycle;Signal;HPM_P1;HPM_P2
2024/03/11 00:00:15;;;;;;;1.77;1.53;;;;;;;7.25;100.00;96533.22;4975305;28;20329;-77
2024/03/11 00:02:42;;;;;;;2.20;1.30;;;;;;;7.22;100.00;96530.00;4975338;28;20223;-76
2024/03/11 00:05:09;;;;;;;1.40;1.30;;;;;;;7.23;100.00;96529.91;4975101;28;20253;-77
2024/03/11 00:07:37;;;;;;;1.87;1.70;;;;;;;7.22;100.00;96529.06;4975301;28;20214;-77
2024/03/11 00:10:04;;;;;;;1.70;1.60;;;;;;;7.16;100.00;96528.72;4975200;28;20229;-77
2024/03/11 00:12:38;;;;;;;2.10;1.47;;;;;;;7.17;100.00;96538.28;4975136;28;20670;-77
2024/03/11 00:15:07;;;;;;;2.00;1.70;;;;;;;7.13;100.00;96539.47;4975509;28;20647;-77
2024/03/11 00:17:35;;;;;;;2.53;1.70;;;;;;;7.18;100.00;96533.84;4975087;28;20705;-77
2024/03/11 00:20:02;;;;;;;2.17;1.60;;;;;;;7.14;100.00;96549.00;4974837;28;20213;-77
2024/03/11 00:22:29;;;;;;;2.03;1.57;;;;;;;7.08;100.00;96546.06;4975122;28;20218;-77
2024/03/11 00:24:55;;;;;;;2.40;2.10;;;;;;;7.07;100.00;96554.88;4974871;28;20234;-77
2024/03/11 00:27:22;;;;;;;1.63;1.53;;;;;;;7.03;100.00;96554.28;4974541;28;20217;-77
2024/03/11 00:29:50;;;;;;;2.30;1.80;;;;;;;7.01;100.00;96548.34;4975236;28;20206;-77
2024/03/11 00:32:17;;;;;;;2.40;1.90;;;;;;;7.01;100.00;96558.03;4974578;28;20745;-77
2024/03/11 00:34:44;;;;;;;2.63;1.93;;;;;;;7.01;100.00;96555.41;4974652;28;20217;-77
2024/03/11 00:37:12;;;;;;;2.57;1.70;;;;;;;6.98;100.00;96560.88;4974728;28;20211;-77
2024/03/11 00:39:38;;;;;;;1.77;1.57;;;;;;;6.98;100.00;96566.97;4974753;28;20288;-77
2024/03/11 00:42:06;;;;;;;1.97;1.67;;;;;;;6.97;100.00;96573.16;4974585;28;20235;-77
2024/03/11 00:44:32;;;;;;;1.70;1.60;;;;;;;6.94;100.00;96565.53;4974441;28;20320;-77
2024/03/11 00:46:59;;;;;;;3.03;1.87;;;;;;;6.93;100.00;96571.75;4974138;28;20630;-77
2024/03/11 00:49:26;;;;;;;1.70;1.60;;;;;;;6.93;100.00;96579.63;4974274;28;20685;-77
2024/03/11 00:51:54;;;;;;;1.83;1.73;;;;;;;6.95;100.00;96579.53;4973951;28;20321;-77
2024/03/11 00:54:22;;;;;;;1.93;1.67;;;;;;;6.93;100.00;96577.00;4974565;28;20210;-77
2024/03/11 00:56:48;;;;;;;2.17;1.90;;;;;;;6.97;100.00;96578.41;4974461;28;20213;-77
2024/03/11 00:59:15;;;;;;;2.00;1.80;;;;;;;6.95;100.00;96585.59;4974178;28;20212;-77
2024/03/11 01:01:41;;;;;;;1.70;1.60;;;;;;;7.00;100.00;96585.22;4974406;28;20824;-77
2024/03/11 01:04:09;;;;;;;2.67;2.07;;;;;;;6.98;100.00;96595.03;4973906;28;20709;-77
2024/03/11 01:06:36;;;;;;;2.20;1.80;;;;;;;6.98;100.00;96595.88;4974239;28;20271;-77
2024/03/11 01:09:04;;;;;;;2.10;1.80;;;;;;;6.97;100.00;96607.31;4974648;28;20589;-77
2024/03/11 01:11:31;;;;;;;1.67;1.57;;;;;;;6.94;100.00;96602.31;4973999;28;20237;-77
2024/03/11 01:13:57;;;;;;;2.60;2.00;;;;;;;6.93;100.00;96605.91;4974149;28;20675;-77
2024/03/11 01:16:25;;;;;;;2.30;1.67;;;;;;;6.95;100.00;96605.78;4974312;28;20211;-77
2024/03/11 01:18:51;;;;;;;1.70;1.60;;;;;;;6.92;100.00;96612.09;4974147;28;20215;-77
2024/03/11 01:21:18;;;;;;;2.10;1.80;;;;;;;6.91;100.00;96613.03;4974027;28;20230;-77
2024/03/11 01:23:44;;;;;;;2.03;1.70;;;;;;;6.94;100.00;96618.06;4974287;28;20213;-77
2024/03/11 01:26:12;;;;;;;1.97;1.60;;;;;;;6.90;100.00;96624.50;4973855;28;20599;-77
2024/03/11 01:28:39;;;;;;;2.50;2.13;;;;;;;6.94;100.00;96627.72;4974117;28;20222;-77
2024/03/11 01:31:06;;;;;;;1.90;1.63;;;;;;;6.92;100.00;96624.38;4973740;28;20297;-77
2024/03/11 01:33:32;;;;;;;1.70;1.60;;;;;;;6.94;100.00;96625.94;4974037;28;20211;-77
2024/03/11 01:35:59;;;;;;;2.00;1.70;;;;;;;6.90;100.00;96635.00;4973929;28;20213;-77
2024/03/11 01:38:27;;;;;;;2.50;1.80;;;;;;;6.87;100.00;96632.63;4974010;28;20280;-77
2024/03/11 01:40:53;;;;;;;2.07;1.70;;;;;;;6.86;100.00;96630.97;4973743;28;20587;-77
2024/03/11 01:43:21;;;;;;;2.20;1.90;;;;;;;6.83;100.00;96630.38;4974022;28;20582;-77
2024/03/11 01:45:48;;;;;;;2.33;2.10;;;;;;;6.80;100.00;96628.81;4973906;28;20234;-77
2024/03/11 01:48:15;;;;;;;2.00;1.80;;;;;;;6.78;100.00;96628.09;4973649;28;20217;-77
2024/03/11 01:50:43;;;;;;;2.53;2.00;;;;;;;6.74;100.00;96628.44;4973780;28;20233;-77
2024/03/11 01:53:10;;;;;;;1.50;1.40;;;;;;;6.64;100.00;96628.31;4973902;28;20265;-77
2024/03/11 01:55:37;;;;;;;1.40;1.30;;;;;;;6.64;100.00;96628.31;4973979;28;20209;-77
2024/03/11 01:58:05;;;;;;;1.93;1.47;;;;;;;6.62;100.00;96630.25;4974494;28;20206;-77
2024/03/11 02:00:35;;;;;;;1.90;1.70;;;;;;;6.60;100.00;96637.38;4985215;28;20232;-78
2024/03/11 02:03:01;;;;;;;2.03;1.77;;;;;;;6.65;100.00;96643.13;4990796;28;20222;-78
2024/03/11 02:05:28;;;;;;;3.20;1.70;;;;;;;6.65;100.00;96634.44;4990503;28;20721;-78
2024/03/11 02:07:59;;;;;;;2.30;1.63;;;;;;;6.64;100.00;96628.31;4989798;28;20218;-78
2024/03/11 02:10:26;;;;;;;2.77;1.77;;;;;;;6.59;100.00;96622.59;4990357;28;20231;-78
2024/03/11 02:12:53;;;;;;;2.10;1.80;;;;;;;6.50;100.00;96631.19;4990760;28;20210;-77
2024/03/11 02:15:20;;;;;;;1.60;1.50;;;;;;;6.39;100.00;96632.94;4991336;28;20213;-78
2024/03/11 02:17:48;;;;;;;1.70;1.30;;;;;;;6.29;100.00;96632.00;4990818;28;20212;-78
2024/03/11 02:20:16;;;;;;;1.57;1.47;;;;;;;6.23;100.00;96632.47;4990315;28;20216;-78
2024/03/11 02:22:46;;;;;;;2.37;1.60;;;;;;;6.14;100.00;96627.88;4990204;28;20232;-78
2024/03/11 02:25:15;;;;;;;1.77;1.60;;;;;;;6.05;100.00;96624.16;4989936;28;20675;-78
2024/03/11 02:27:41;;;;;;;1.50;1.30;;;;;;;5.99;100.00;96624.63;4990729;28;20252;-78
2024/03/11 02:30:08;;;;;;;1.60;1.47;;;;;;;5.92;100.00;96623.41;4988711;28;20215;-77
2024/03/11 02:32:35;;;;;;;1.60;1.37;;;;;;;5.85;100.00;96632.69;4987136;28;20215;-78
2024/03/11 02:35:01;;;;;;;1.90;1.33;;;;;;;5.79;100.00;96621.78;4987972;28;20206;-78
2024/03/11 02:37:28;;;;;;;1.37;1.20;;;;;;;5.70;100.00;96623.31;4986353;28;20221;-78
2024/03/11 02:39:55;;;;;;;1.30;1.20;;;;;;;5.64;100.00;96634.25;4980296;28;20230;-78
2024/03/11 02:42:24;;;;;;;1.47;1.37;;;;;;;5.57;100.00;96635.63;4979893;28;20822;-78
2024/03/11 02:44:51;;;;;;;2.40;1.67;;;;;;;5.50;100.00;96637.03;4981059;28;20210;-78
2024/03/11 02:47:18;;;;;;;1.83;1.30;;;;;;;5.51;100.00;96643.13;4982437;28;20247;-78
2024/03/11 02:49:44;;;;;;;1.60;1.40;;;;;;;5.51;100.00;96646.56;4979695;28;20211;-78
2024/03/11 02:52:11;;;;;;;2.13;1.40;;;;;;;5.49;100.00;96648.44;4979511;28;20245;-78
2024/03/11 02:54:38;;;;;;;1.43;1.30;;;;;;;5.50;100.00;96649.31;4979217;28;20220;-78
2024/03/11 02:57:05;;;;;;;1.67;1.43;;;;;;;5.48;100.00;96652.03;4979650;28;20217;-78
2024/03/11 02:59:33;;;;;;;1.37;1.27;;;;;;;5.45;100.00;96654.84;4979394;28;20307;-78
2024/03/11 03:02:00;;;;;;;1.70;1.20;;;;;;;5.41;100.00;96665.66;4978793;28;20263;-78
2024/03/11 03:04:26;;;;;;;1.83;1.53;;;;;;;5.39;100.00;96665.81;4979407;28;20219;-78
2024/03/11 03:06:54;;;;;;;1.47;1.37;;;;;;;5.39;100.00;96665.81;4978798;28;20230;-78
2024/03/11 03:09:21;;;;;;;1.40;1.23;;;;;;;5.38;100.00;96658.88;4978709;28;20211;-78
2024/03/11 03:11:48;;;;;;;1.30;1.20;;;;;;;5.34;100.00;96665.28;4978500;28;20227;-78
2024/03/11 03:14:14;;;;;;;1.60;1.33;;;;;;;5.36;100.00;96666.00;4977199;28;20208;-78
2024/03/11 03:16:42;;;;;;;1.20;1.10;;;;;;;5.34;100.00;96667.91;4978971;28;20391;-78
2024/03/11 03:19:08;;;;;;;1.73;1.63;;;;;;;5.33;100.00;96675.88;4978509;28;20207;-78
2024/03/11 03:21:35;;;;;;;1.70;1.57;;;;;;;5.32;100.00;96674.19;4978028;28;20238;-77
2024/03/11 03:24:02;;;;;;;1.70;1.60;;;;;;;5.26;100.00;96672.84;4977977;28;20219;-78
2024/03/11 03:26:28;;;;;;;1.87;1.50;;;;;;;5.21;100.00;96685.44;4977874;28;20281;-78
2024/03/11 03:28:55;;;;;;;5.37;1.53;;;;;;;5.22;100.00;96683.66;4978003;28;20216;-77
2024/03/11 03:31:23;;;;;;;1.63;1.47;;;;;;;5.15;100.00;96675.41;4975984;28;20236;-77
2024/03/11 03:33:51;;;;;;;2.10;1.63;;;;;;;5.20;100.00;96681.13;4977125;28;20267;-78
2024/03/11 03:36:18;;;;;;;1.63;1.37;;;;;;;5.11;100.00;96683.56;4977898;28;20298;-78
2024/03/11 03:38:45;;;;;;;1.50;1.37;;;;;;;5.07;100.00;96685.56;4976973;28;20218;-77
2024/03/11 03:41:12;;;;;;;2.03;1.70;;;;;;;4.99;100.00;96693.13;4974271;28;20301;-77
2024/03/11 03:43:39;;;;;;;1.70;1.37;;;;;;;4.94;100.00;96694.41;4975589;28;20219;-77
2024/03/11 03:46:05;;;;;;;1.73;1.43;;;;;;;4.86;100.00;96692.31;4975794;28;20238;-77
2024/03/11 03:48:33;;;;;;;1.40;1.30;;;;;;;4.81;100.00;96691.78;4974225;28;20292;-77
2024/03/11 03:51:03;;;;;;;1.40;1.30;;;;;;;4.78;100.00;96689.41;4975502;28;20269;-77
2024/03/11 03:53:30;;;;;;;1.67;1.40;;;;;;;4.81;100.00;96691.78;4975657;28;20223;-77
2024/03/11 03:55:57;;;;;;;1.47;1.30;;;;;;;4.76;100.00;96690.44;4975927;28;20218;-77
2024/03/11 03:58:24;;;;;;;1.87;1.37;;;;;;;4.70;100.00;96696.91;4975711;28;20215;-77
2024/03/11 04:00:50;;;;;;;1.60;1.30;;;;;;;4.72;100.00;96699.44;4975219;28;20226;-77
2024/03/11 04:03:18;;;;;;;1.63;1.17;;;;;;;4.69;100.00;96694.41;4975356;28;20222;-77
2024/03/11 04:05:48;;;;;;;2.00;1.10;;;;;;;4.64;100.00;96692.09;4975123;28;20236;-76
2024/03/11 04:08:16;;;;;;;2.13;1.63;;;;;;;4.62;100.00;96701.84;4975089;28;20211;-77
2024/03/11 04:10:42;;;;;;;1.37;1.27;;;;;;;4.60;100.00;96706.34;4975019;28;20261;-77
2024/03/11 04:13:12;;;;;;;2.00;1.40;;;;;;;4.56;100.00;96707.50;4975574;28;20229;-77
2024/03/11 04:15:40;;;;;;;2.37;1.33;;;;;;;4.55;100.00;96703.22;4975067;28;20215;-76
2024/03/11 04:18:07;;;;;;;2.70;1.40;;;;;;;4.54;100.00;96705.94;4974758;28;20211;-77
2024/03/11 04:20:34;;;;;;;1.60;1.50;;;;;;;4.50;100.00;96699.22;4974556;28;20605;-77
2024/03/11 04:23:02;;;;;;;1.20;1.10;;;;;;;4.50;100.00;96704.44;4975051;28;20218;-77
2024/03/11 04:25:31;;;;;;;1.57;1.40;;;;;;;4.45;100.00;96710.00;4974909;28;20212;-76
2024/03/11 04:27:59;;;;;;;1.73;1.33;;;;;;;4.41;100.00;96705.91;4974759;28;20231;-77
2024/03/11 04:30:30;;;;;;;1.40;1.27;;;;;;;4.37;100.00;96704.44;4974642;28;20243;-77
2024/03/11 04:32:58;;;;;;;1.97;1.30;;;;;;;4.35;100.00;96716.78;4975148;28;20207;-77
2024/03/11 04:35:26;;;;;;;1.40;1.30;;;;;;;4.29;100.00;96711.13;4975099;28;20305;-77
2024/03/11 04:37:54;;;;;;;1.40;1.20;;;;;;;4.22;100.00;96709.88;4974511;28;20281;-77
2024/03/11 04:40:20;;;;;;;1.03;1.00;;;;;;;4.18;100.00;96703.16;4974338;28;20238;-76
2024/03/11 04:42:48;;;;;;;2.27;1.20;;;;;;;4.16;100.00;96710.28;4974609;28;20226;-76
2024/03/11 04:45:17;;;;;;;1.37;1.20;;;;;;;4.13;100.00;96713.09;4974449;28;20214;-77
2024/03/11 04:47:43;;;;;;;1.00;1.00;;;;;;;4.06;100.00;96710.06;4974564;28;20278;-77
2024/03/11 04:50:10;;;;;;;1.20;1.10;;;;;;;4.03;100.00;96705.00;4974093;28;20211;-77
2024/03/11 04:52:37;;;;;;;1.23;1.13;;;;;;;3.97;100.00;96713.25;4974318;28;20203;-76
2024/03/11 04:55:05;;;;;;;1.37;1.23;;;;;;;3.93;100.00;96713.56;4974512;28;20221;-77
2024/03/11 04:57:32;;;;;;;1.40;1.20;;;;;;;3.92;100.00;96717.13;4974430;28;20682;-77
2024/03/11 04:59:59;;;;;;;1.37;1.27;;;;;;;3.87;100.00;96720.03;4974353;28;20211;-77
2024/03/11 05:02:27;;;;;;;2.13;1.30;;;;;;;3.84;100.00;96709.78;4974515;28;20211;-76
2024/03/11 05:04:54;;;;;;;2.07;1.40;;;;;;;3.81;100.00;96720.44;4974085;28;20689;-77
2024/03/11 05:07:20;;;;;;;1.57;1.47;;;;;;;3.79;100.00;96726.69;4974001;28;20237;-77
2024/03/11 05:09:47;;;;;;;1.80;1.30;;;;;;;3.72;100.00;96728.03;4973879;28;20215;-76
2024/03/11 05:12:13;;;;;;;1.60;1.20;;;;;;;3.74;100.00;96734.00;4973264;28;20235;-77
2024/03/11 05:14:40;;;;;;;2.80;1.50;;;;;;;3.76;100.00;96732.09;4973931;28;20212;-77
2024/03/11 05:17:08;;;;;;;2.17;1.50;;;;;;;3.78;100.00;96735.47;4973784;28;20213;-77
2024/03/11 05:19:35;;;;;;;0.90;0.90;;;;;;;3.79;100.00;96730.13;4973650;28;20312;-76
2024/03/11 05:22:02;;;;;;;1.93;1.40;;;;;;;3.80;100.00;96739.63;4973426;28;20745;-76
2024/03/11 05:24:30;;;;;;;1.33;1.17;;;;;;;3.88;100.00;96745.22;4973608;28;20233;-77
2024/03/11 05:26:56;;;;;;;1.63;1.30;;;;;;;3.92;100.00;96749.31;4973615;28;20235;-77
2024/03/11 05:29:23;;;;;;;3.73;1.70;;;;;;;3.92;100.00;96749.31;4973586;28;20215;-77
2024/03/11 05:31:49;;;;;;;2.83;1.70;;;;;;;3.92;100.00;96748.47;4972977;28;20230;-77
2024/03/11 05:34:17;;;;;;;2.03;1.57;;;;;;;3.91;100.00;96755.47;4972479;28;20218;-76
2024/03/11 05:36:43;;;;;;;1.60;1.30;;;;;;;3.88;100.00;96757.44;4973314;28;20217;-76
2024/03/11 05:39:10;;;;;;;1.40;1.30;;;;;;;3.96;100.00;96761.25;4972970;28;20222;-77
2024/03/11 05:41:36;;;;;;;1.90;1.50;;;;;;;3.99;100.00;96758.44;4973385;28;20603;-77
2024/03/11 05:44:04;;;;;;;1.50;1.30;;;;;;;4.04;100.00;96758.97;4973720;28;20214;-77
2024/03/11 05:46:31;;;;;;;2.13;1.70;;;;;;;3.96;100.00;96769.09;4973302;28;20230;-76
2024/03/11 05:48:58;;;;;;;1.43;1.30;;;;;;;3.91;100.00;96773.75;4973552;28;20267;-77
2024/03/11 05:51:28;;;;;;;1.43;1.33;;;;;;;3.90;100.00;96777.31;4973139;28;20645;-76
2024/03/11 05:53:56;;;;;;;2.20;1.40;;;;;;;3.89;100.00;96773.03;4973211;28;20571;-77
2024/03/11 05:56:23;;;;;;;1.77;1.57;;;;;;;3.87;100.00;96769.69;4973451;28;20227;-77
2024/03/11 05:58:49;;;;;;;1.70;1.30;;;;;;;3.87;100.00;96774.91;4973545;28;20218;-76
2024/03/11 06:01:16;;;;;;;2.10;1.47;;;;;;;3.91;100.00;96780.78;4973220;28;20578;-77
2024/03/11 06:03:42;;;;;;;1.57;1.20;;;;;;;3.96;100.00;96786.53;4973515;28;20214;-77
2024/03/11 06:06:09;;;;;;;2.00;1.70;;;;;;;4.03;100.00;96788.66;4973767;28;20242;-77
2024/03/11 06:08:37;;;;;;;3.17;1.53;;;;;;;4.03;100.00;96798.28;4973460;28;20221;-76
2024/03/11 06:11:05;;;;;;;2.73;1.60;;;;;;;4.07;100.00;96791.91;4973174;28;20244;-77
2024/03/11 06:13:32;;;;;;;2.47;1.60;;;;;;;4.08;100.00;96802.28;4973423;28;20353;-76
2024/03/11 06:16:00;;;;;;;2.50;1.70;;;;;;;4.19;100.00;96805.03;4972856;28;20688;-76
2024/03/11 06:18:28;;;;;;;1.87;1.60;;;;;;;4.22;100.00;96812.66;4972780;28;20704;-77
2024/03/11 06:20:54;;;;;;;1.50;1.40;;;;;;;4.23;100.00;96822.19;4972260;28;20248;-76
2024/03/11 06:23:21;;;;;;;2.03;1.60;;;;;;;4.23;100.00;96827.41;4972677;28;20210;-76
2024/03/11 06:25:49;;;;;;;3.13;2.53;;;;;;;4.25;100.00;96824.69;4972737;28;20221;-77
2024/03/11 06:28:19;;;;;;;2.10;1.90;;;;;;;4.30;100.00;96828.72;4972679;28;20696;-77
2024/03/11 06:30:47;;;;;;;2.53;1.83;;;;;;;4.36;100.00;96844.00;4972259;28;20232;-77
2024/03/11 06:33:14;;;;;;;2.20;2.00;;;;;;;4.44;100.00;96844.34;4973001;28;20211;-76
2024/03/11 06:35:40;;;;;;;3.53;2.20;;;;;;;4.52;100.00;96843.84;4973278;28;20265;-77
2024/03/11 06:38:07;;;;;;;3.77;2.37;;;;;;;4.52;100.00;96844.66;4972956;28;20213;-76
2024/03/11 06:40:34;;;;;;;3.83;2.13;;;;;;;4.60;100.00;96850.25;4972655;28;20253;-76
2024/03/11 06:43:02;;;;;;;3.57;2.33;;;;;;;4.64;100.00;96856.13;4972427;28;20248;-76
2024/03/11 06:45:29;;;;;;;3.77;2.20;;;;;;;4.73;100.00;96858.13;4975592;28;20215;-76
2024/03/11 06:47:56;;;;;;;2.60;2.10;;;;;;;4.78;100.00;96863.88;4976043;28;20236;-76
2024/03/11 06:50:22;;;;;;;3.00;1.93;;;;;;;4.88;100.00;96867.59;4976337;28;20233;-76
2024/03/11 06:52:49;;;;;;;3.27;2.23;;;;;;;4.93;100.00;96868.94;4976206;28;20214;-76
2024/03/11 06:55:16;;;;;;;2.93;2.03;;;;;;;5.00;100.00;96867.59;4976263;28;20295;-75
2024/03/11 06:57:43;;;;;;;2.80;2.13;;;;;;;5.09;100.00;96871.38;4976143;28;20233;-74
2024/03/11 07:00:18;;;;;;;2.53;2.17;;;;;;;5.18;100.00;96871.59;4975764;28;20211;-76
2024/03/11 07:02:46;;;;;;;3.20;2.13;;;;;;;5.31;100.00;96872.44;4975627;28;20222;-75
2024/03/11 07:05:14;;;;;;;3.70;2.10;;;;;;;5.46;100.00;96871.38;4975883;28;20226;-75
2024/03/11 07:07:43;;;;;;;2.77;1.93;;;;;;;5.60;100.00;96873.03;4976214;28;20249;-75
2024/03/11 07:10:10;;;;;;;2.37;1.93;;;;;;;5.70;100.00;96874.94;4975755;28;20215;-75
2024/03/11 07:12:38;;;;;;;3.37;2.37;;;;;;;5.83;100.00;96878.41;4975851;28;20214;-75
2024/03/11 07:15:06;;;;;;;3.13;2.03;;;;;;;5.97;100.00;96880.03;4975707;28;20219;-76
2024/03/11 07:17:34;;;;;;;1.97;1.80;;;;;;;6.12;100.00;96879.78;4975917;28;20212;-76
2024/03/11 07:20:01;;;;;;;3.17;1.90;;;;;;;6.29;100.00;96887.28;4975837;28;20746;-76
2024/03/11 07:22:28;;;;;;;1.63;1.43;;;;;;;6.46;100.00;96888.69;4975594;28;20211;-76
2024/03/11 07:24:54;;;;;;;1.97;1.50;;;;;;;6.59;100.00;96887.69;4975740;28;20260;-76
2024/03/11 07:27:21;;;;;;;1.95;1.30;;;;;;;6.66;100.00;96894.16;4975609;28;20382;-76
2024/03/11 07:29:48;;;;;;;2.23;1.50;;;;;;;6.71;100.00;96899.91;4975254;28;20714;-76
2024/03/11 07:32:15;;;;;;;1.80;1.70;;;;;;;6.75;100.00;96904.00;4974830;28;20228;-75
2024/03/11 07:34:43;;;;;;;1.37;1.27;;;;;;;6.75;100.00;96909.25;4975529;28;20211;-78
2024/03/11 07:37:10;;;;;;;1.33;1.10;;;;;;;6.76;100.00;96912.69;4975815;28;20331;-78
2024/03/11 07:39:37;;;;;;;1.55;1.40;;;;;;;6.80;100.00;96914.16;4967810;28;20458;-77
2024/03/11 07:42:03;;;;;;;1.73;1.07;;;;;;;6.76;100.00;96913.56;4973440;28;20278;-76
2024/03/11 07:44:30;;;;;;;1.17;1.10;;;;;;;6.84;100.00;96915.63;4973393;28;20218;-76
2024/03/11 07:46:57;;;;;;;1.13;0.90;;;;;;;6.89;100.00;96916.13;4973728;28;20241;-77
2024/03/11 07:49:25;;;;;;;2.83;1.00;;;;;;;6.95;100.00;96924.38;4973472;28;20210;-79
2024/03/11 07:51:53;;;;;;;1.30;1.00;;;;;;;7.04;100.00;96926.34;4976493;28;20241;-80
2024/03/11 07:54:19;;;;;;;2.13;1.00;;;;;;;7.11;100.00;96927.56;4975780;28;20304;-81
2024/03/11 07:56:46;;;;;;;0.97;0.80;;;;;;;7.13;100.00;96925.66;4975958;28;20570;-80
2024/03/11 07:59:12;;;;;;;1.37;0.90;;;;;;;7.21;100.00;96931.16;4976771;28;20211;-80
2024/03/11 08:01:39;;;;;;;1.27;1.10;;;;;;;7.31;100.00;96934.78;4976190;28;20730;-82
2024/03/11 08:04:08;;;;;;;0.97;0.87;;;;;;;7.39;100.00;96938.50;4975734;28;20591;-80
2024/03/11 08:06:35;;;;;;;2.57;1.10;;;;;;;7.48;100.00;96934.34;4976584;28;20296;-79
2024/03/11 08:09:02;;;;;;;1.50;0.93;;;;;;;7.57;100.00;96946.78;4976654;28;20231;-79
2024/03/11 08:11:29;;;;;;;1.37;0.80;;;;;;;7.74;100.00;96951.59;4974577;28;20676;-79
2024/03/11 08:13:56;;;;;;;1.47;0.77;;;;;;;7.89;100.00;96953.06;4974253;28;20214;-79
2024/03/11 08:16:22;;;;;;;1.67;0.93;;;;;;;8.01;100.00;96950.31;4973910;28;20316;-79
2024/03/11 08:18:49;;;;;;;1.00;0.80;;;;;;;8.16;100.00;96943.03;4974465;28;20218;-79
2024/03/11 08:21:15;;;;;;;2.97;0.97;;;;;;;8.27;100.00;96953.59;4974219;28;20243;-79
2024/03/11 08:23:42;;;;;;;1.87;0.80;;;;;;;8.31;100.00;96945.31;4974223;28;20214;-79
2024/03/11 08:26:11;;;;;;;1.07;0.90;;;;;;;8.35;100.00;96945.91;4974412;28;20234;-80
2024/03/11 08:28:39;;;;;;;0.90;0.90;;;;;;;8.47;100.00;96937.03;4974152;28;20327;-80
2024/03/11 08:31:07;;;;;;;1.23;0.77;;;;;;;8.66;100.00;96939.88;4973667;28;20288;-79
2024/03/11 08:33:34;;;;;;;0.90;0.80;;;;;;;8.72;100.00;96942.00;4973983;28;20238;-79
2024/03/11 08:36:01;;;;;;;2.07;0.80;;;;;;;8.78;100.00;96947.63;4974137;28;20248;-79
2024/03/11 08:38:28;;;;;;;2.03;0.70;;;;;;;8.83;100.00;96942.84;4974064;28;20235;-80
2024/03/11 08:40:55;;;;;;;0.80;0.70;;;;;;;8.91;100.00;96944.84;4974239;28;20252;-79
2024/03/11 08:43:22;;;;;;;0.90;0.80;;;;;;;8.97;100.00;96933.78;4974151;28;20219;-80
2024/03/11 08:45:49;;;;;;;1.10;0.77;;;;;;;9.06;100.00;96933.06;4973837;28;20242;-80
2024/03/11 08:48:16;;;;;;;0.80;0.80;;;;;;;9.35;100.00;96939.38;4973809;28;20891;-78
2024/03/11 08:50:42;;;;;;;0.93;0.90;;;;;;;9.60;100.00;96937.22;4973207;28;20231;-80
2024/03/11 08:53:09;;;;;;;1.07;0.93;;;;;;;9.64;100.00;96940.44;4973894;28;20213;-79
2024/03/11 08:55:36;;;;;;;1.57;0.80;;;;;;;9.63;100.00;96925.56;4973787;28;20222;-79
2024/03/11 08:58:05;;;;;;;0.70;0.70;;;;;;;9.67;100.00;96927.81;4973503;28;20207;-79
2024/03/11 09:00:36;;;;;;;0.73;0.73;;;;;;;9.75;99.97;96927.16;4973338;28;20784;-79
2024/03/11 09:03:03;;;;;;;0.87;0.70;;;;;;;9.88;99.15;96931.28;4973637;28;20225;-79
2024/03/11 09:05:31;;;;;;;1.10;0.67;;;;;;;9.87;98.36;96937.53;4973444;28;20221;-79
2024/03/11 09:07:58;;;;;;;1.60;0.60;;;;;;;9.88;99.97;96948.91;4972702;28;20243;-79
2024/03/11 09:10:24;;;;;;;1.07;0.70;;;;;;;9.98;100.00;96949.81;4974640;28;20233;-79
2024/03/11 09:12:52;;;;;;;0.50;0.50;;;;;;;10.05;100.00;96948.34;4974015;28;20218;-79
2024/03/11 09:15:23;;;;;;;0.87;0.60;;;;;;;10.19;99.38;96953.25;4973546;28;20299;-79
2024/03/11 09:17:52;;;;;;;1.47;0.70;;;;;;;10.25;99.00;96952.75;4973334;28;20556;-78
2024/03/11 09:20:20;;;;;;;1.30;0.70;;;;;;;10.46;99.89;96966.75;4974753;28;20216;-78
2024/03/11 09:22:49;;;;;;;1.20;0.93;;;;;;;10.69;95.11;96936.47;4974524;28;20204;-79
2024/03/11 09:25:17;;;;;;;2.40;0.90;;;;;;;10.99;96.18;96949.59;4973297;28;20628;-79
2024/03/11 09:27:46;;;;;;;1.50;0.90;;;;;;;11.05;95.23;96943.78;4971435;28;20337;-79
2024/03/11 09:30:13;;;;;;;0.83;0.80;;;;;;;11.15;96.33;96955.22;4967912;28;20214;-79
2024/03/11 09:32:43;;;;;;;0.77;0.70;;;;;;;11.17;91.19;96924.16;4970924;28;20624;-77
2024/03/11 09:35:12;;;;;;;1.00;0.83;;;;;;;11.12;93.24;96940.44;4972515;28;20212;-76
2024/03/11 09:37:39;;;;;;;0.83;0.63;;;;;;;11.20;91.55;96937.94;4972482;28;20210;-77
2024/03/11 09:40:09;;;;;;;0.90;0.70;;;;;;;11.27;86.93;96912.63;4971587;28;20222;-77
2024/03/11 09:42:37;;;;;;;1.10;0.60;;;;;;;11.37;86.68;96917.91;4972568;28;20214;-77
2024/03/11 09:45:07;;;;;;;0.70;0.70;;;;;;;11.36;85.73;96926.81;4972202;28;20684;-77
2024/03/11 09:47:33;;;;;;;1.00;0.57;;;;;;;11.31;86.05;96919.28;4972291;28;20232;-77
2024/03/11 09:50:00;;;;;;;0.97;0.60;;;;;;;11.34;85.70;96924.31;4972238;28;20210;-78
2024/03/11 09:52:29;;;;;;;0.73;0.70;;;;;;;11.28;84.13;96929.31;4972151;28;20209;-77
2024/03/11 09:54:58;;;;;;;1.37;0.67;;;;;;;11.23;83.40;96927.09;4972147;28;20261;-77
2024/03/11 09:57:26;;;;;;;2.63;0.73;;;;;;;11.35;80.51;96930.44;4972157;28;20246;-76
2024/03/11 09:59:54;;;;;;;1.20;0.70;;;;;;;11.25;79.65;96929.63;4971824;28;20934;-76
2024/03/11 10:02:22;;;;;;;1.27;0.70;;;;;;;11.22;76.81;96906.91;4953208;28;20318;-78
2024/03/11 10:04:53;;;;;;;0.60;0.60;;;;;;;11.17;79.15;96942.66;4952822;28;20440;-79
2024/03/11 10:07:22;;;;;;;1.70;0.70;;;;;;;11.09;82.61;96955.75;4953945;28;20216;-76
2024/03/11 10:09:51;;;;;;;0.53;0.50;;;;;;;10.98;79.50;96940.00;4953602;28;20209;-75
2024/03/11 10:12:21;;;;;;;1.63;0.60;;;;;;;10.83;78.53;96944.84;4953008;28;20724;-78
2024/03/11 10:14:50;;;;;;;0.87;0.57;;;;;;;10.68;78.12;96930.38;4953556;29;20607;-76
2024/03/11 10:17:20;;;;;;;0.90;0.50;;;;;;;10.58;78.12;96936.59;4968545;28;20239;-76
2024/03/11 10:19:47;;;;;;;0.80;0.60;;;;;;;10.57;78.84;96948.13;4955667;28;20208;-76
2024/03/11 10:22:22;;;;;;;1.33;0.70;;;;;;;10.50;81.19;96957.56;4957341;28;20235;-81
2024/03/11 10:24:49;;;;;;;1.77;0.60;;;;;;;10.67;83.79;96981.56;4958269;29;20264;-80
2024/03/11 10:27:21;;;;;;;2.73;0.60;;;;;;;10.91;80.47;96954.75;4958158;29;20236;-80
2024/03/11 10:29:49;;;;;;;2.17;0.70;;;;;;;11.10;76.86;96920.41;4967875;28;20649;-79
2024/03/11 10:32:33;;;;;;;2.13;0.67;;;;;;;11.27;78.01;96927.66;4977440;28;20237;-80
2024/03/11 10:35:00;;;;;;;0.40;0.40;;;;;;;11.45;76.12;96926.81;4978536;28;20202;-80
2024/03/11 10:37:26;;;;;;;0.57;0.55;;;;;;;11.55;74.58;96916.22;4975988;28;21062;-80
2024/03/11 10:39:59;;;;;;;0.83;0.50;;;;;;;11.62;75.53;96927.94;4977502;28;20215;-80
2024/03/11 10:42:32;;;;;;;0.93;0.50;;;;;;;11.51;71.79;96901.59;4978325;28;20266;-78
2024/03/11 10:44:59;;;;;;;0.50;0.50;;;;;;;11.55;72.98;96910.94;4975795;28;20273;-77
2024/03/11 10:47:28;;;;;;;0.80;0.50;;;;;;;11.66;72.00;96902.84;4976123;28;20216;-76
2024/03/11 10:49:54;;;;;;;0.50;0.50;;;;;;;11.90;72.73;96919.09;4976855;28;20233;-76
2024/03/11 10:52:23;;;;;;;0.47;0.43;;;;;;;12.06;71.68;96906.94;4976264;28;20234;-76
2024/03/11 10:54:51;;;;;;;0.40;0.40;;;;;;;12.23;70.69;96913.28;4976185;28;20215;-78
2024/03/11 10:57:29;;;;;;;0.60;0.53;;;;;;;12.42;69.88;96897.31;4976155;28;20215;-78
2024/03/11 10:59:56;;;;;;;0.97;0.60;;;;;;;12.49;69.74;96898.38;4976132;28;20213;-78
2024/03/11 11:02:23;;;;;;;0.67;0.67;;;;;;;12.55;67.00;96871.28;4975963;28;20230;-79
2024/03/11 11:04:53;;;;;;;1.33;0.50;;;;;;;12.64;67.18;96875.69;4975835;28;20226;-78
2024/03/11 11:07:29;;;;;;;0.70;0.43;;;;;;;13.00;68.48;96893.34;4975673;28;20212;-78
2024/03/11 11:10:01;;;;;;;0.50;0.50;;;;;;;13.36;68.44;96897.66;4975879;28;20233;-79
2024/03/11 11:12:29;;;;;;;1.03;0.60;;;;;;;13.57;65.61;96868.97;4975883;28;20211;-78
2024/03/11 11:14:57;;;;;;;1.60;0.67;;;;;;;13.63;62.74;96841.81;4978153;28;20242;-79
2024/03/11 11:17:27;;;;;;;1.07;0.70;;;;;;;13.74;63.94;96860.16;4988678;28;20219;-79
2024/03/11 11:19:56;;;;;;;0.70;0.43;;;;;;;13.77;62.75;96849.19;4976704;28;20215;-79
2024/03/11 11:22:25;;;;;;;0.70;0.47;;;;;;;13.99;60.96;96830.91;4975730;28;20257;-79
2024/03/11 11:24:52;;;;;;;0.50;0.50;;;;;;;14.11;60.58;96831.47;4975602;28;20699;-79
2024/03/11 11:27:24;;;;;;;0.60;0.40;;;;;;;14.01;61.04;96841.38;4975474;28;20246;-78
2024/03/11 11:29:54;;;;;;;0.77;0.50;;;;;;;13.85;59.36;96812.06;4975626;28;20231;-78
2024/03/11 11:32:31;;;;;;;0.67;0.60;;;;;;;13.76;59.64;96818.34;4974462;28;20324;-77
2024/03/11 11:34:58;;;;;;;0.70;0.50;;;;;;;13.66;58.75;96814.94;4973842;28;20212;-77